Time;durP1;ratioP1;P1;durP2;ratioP2;P2;SDS_P1;SDS_P2;PMS_P1;PMS_P2;Temp;Humidity;BMP_temperature;BMP_pressure;BME280_temperature;BME280_humidity;BME280_pressure;Samples;Min_cycle;Max_cycle;Signal;HPM_P1;HPM_P2
2021/11/29 00:01:52;;;;;;;;;11.33;9.33;;;;;;;;4873848;29;45465;-84
2021/11/29 00:04:17;;;;;;;;;9.00;6.67;;;;;;;;4875154;29;45864;-83
2021/11/29 00:06:43;;;;;;;;;16.00;15.00;;;;;;;;4872220;29;48282;-83
2021/11/29 00:09:08;;;;;;;;;12.33;10.67;;;;;;;;4873344;29;45406;-83
2021/11/29 00:11:33;;;;;;;;;16.33;16.00;;;;;;;;4872545;29;45544;-83
2021/11/29 00:13:59;;;;;;;;;11.67;11.33;;;;;;;;4876461;29;45477;-84
2021/11/29 00:16:24;;;;;;;;;13.00;13.00;;;;;;;;4872867;29;45791;-83
2021/11/29 00:18:49;;;;;;;;;15.00;14.67;;;;;;;;4870543;29;45346;-83
2021/11/29 00:21:15;;;;;;;;;15.00;15.00;;;;;;;;4873311;29;45474;-83
2021/11/29 00:23:40;;;;;;;;;9.00;9.00;;;;;;;;4871546;29;45550;-83
2021/11/29 00:26:06;;;;;;;;;16.00;14.67;;;;;;;;4873550;29;46287;-83
2021/11/29 00:28:31;;;;;;;;;20.33;14.67;;;;;;;;4872677;29;45381;-83
2021/11/29 00:30:56;;;;;;;;;13.00;13.00;;;;;;;;4872242;29;45432;-83
2021/11/29 00:36:25;;;;;;;;;12.67;12.67;;;;;;;;4873774;29;45440;-82
2021/11/29 00:38:50;;;;;;;;;20.00;19.00;;;;;;;;4874013;29;45719;-82
2021/11/29 00:41:15;;;;;;;;;15.67;15.33;;;;;;;;4870777;29;45482;-81
2021/11/29 00:43:41;;;;;;;;;16.00;15.00;;;;;;;;4873169;29;45438;-82
2021/11/29 00:46:06;;;;;;;;;21.67;17.00;;;;;;;;4872781;29;46946;-82
2021/11/29 00:48:31;;;;;;;;;16.00;12.33;;;;;;;;4875545;29;45371;-83
2021/11/29 00:50:57;;;;;;;;;14.67;13.67;;;;;;;;4873320;29;45290;-82
2021/11/29 00:53:22;;;;;;;;;17.33;16.67;;;;;;;;4873629;29;45394;-82
2021/11/29 00:55:48;;;;;;;;;14.33;14.33;;;;;;;;4872286;29;46988;-82
2021/11/29 00:58:14;;;;;;;;;15.00;15.00;;;;;;;;4873956;29;45402;-82
2021/11/29 01:00:39;;;;;;;;;15.00;15.00;;;;;;;;4873435;29;45667;-83
2021/11/29 01:03:05;;;;;;;;;16.00;13.67;;;;;;;;4872999;29;45327;-82
2021/11/29 01:08:33;;;;;;;;;14.00;13.33;;;;;;;;4872969;29;45340;-83
2021/11/29 01:10:59;;;;;;;;;11.67;11.67;;;;;;;;4870556;29;45285;-83
2021/11/29 01:13:24;;;;;;;;;19.00;14.00;;;;;;;;4870932;29;45580;-82
2021/11/29 01:15:49;;;;;;;;;17.33;13.33;;;;;;;;4870495;29;46824;-83
2021/11/29 01:18:15;;;;;;;;;17.00;12.67;;;;;;;;4872329;29;45374;-82
2021/11/29 01:23:42;;;;;;;;;12.67;12.67;;;;;;;;4872585;29;45411;-82
2021/11/29 01:26:08;;;;;;;;;12.33;12.33;;;;;;;;4871102;29;45446;-83
2021/11/29 01:28:33;;;;;;;;;12.33;12.00;;;;;;;;4885902;29;45304;-82
2021/11/29 01:30:58;;;;;;;;;15.00;13.67;;;;;;;;4871614;29;45379;-82
2021/11/29 01:33:25;;;;;;;;;16.00;15.00;;;;;;;;4870813;29;45327;-83
2021/11/29 01:35:57;;;;;;;;;9.00;7.33;;;;;;;;4884434;29;48473;-82
2021/11/29 01:38:22;;;;;;;;;11.67;11.33;;;;;;;;4868687;29;45637;-82
2021/11/29 01:40:48;;;;;;;;;14.33;12.00;;;;;;;;4871749;29;45598;-82
2021/11/29 01:43:15;;;;;;;;;11.00;8.33;;;;;;;;4886416;29;45365;-83
2021/11/29 01:45:42;;;;;;;;;11.00;11.00;;;;;;;;4886218;29;47123;-82
2021/11/29 01:48:07;;;;;;;;;18.67;15.33;;;;;;;;4887695;29;45916;-82
2021/11/29 01:50:33;;;;;;;;;9.00;9.00;;;;;;;;4873944;29;45206;-83
2021/11/29 01:52:58;;;;;;;;;15.67;12.00;;;;;;;;4871394;29;45472;-83
2021/11/29 01:55:24;;;;;;;;;8.67;8.67;;;;;;;;4886739;29;47108;-82
2021/11/29 01:57:49;;;;;;;;;13.33;11.00;;;;;;;;4873122;29;45455;-83
2021/11/29 02:00:16;;;;;;;;;13.33;13.33;;;;;;;;4873921;29;45425;-83
2021/11/29 02:02:42;;;;;;;;;6.67;6.33;;;;;;;;4869963;29;44840;-85
2021/11/29 02:05:08;;;;;;;;;12.00;12.00;;;;;;;;4869170;29;45412;-84
2021/11/29 02:07:33;;;;;;;;;15.67;14.33;;;;;;;;4883648;29;45411;-84
2021/11/29 02:09:58;;;;;;;;;15.00;12.33;;;;;;;;4869954;29;45372;-84
2021/11/29 02:12:23;;;;;;;;;12.67;12.67;;;;;;;;4883637;28;44859;-83
2021/11/29 02:14:49;;;;;;;;;11.00;11.00;;;;;;;;4880816;29;47836;-83
2021/11/29 02:17:15;;;;;;;;;11.67;10.33;;;;;;;;4880519;29;45378;-83
2021/11/29 02:19:42;;;;;;;;;11.33;9.00;;;;;;;;4866588;29;45443;-83
2021/11/29 02:22:07;;;;;;;;;10.33;9.67;;;;;;;;4884181;29;45693;-83
2021/11/29 02:24:33;;;;;;;;;2.00;1.67;;;;;;;;4870726;29;45962;-83
2021/11/29 02:26:58;;;;;;;;;13.00;11.33;;;;;;;;4869412;29;45645;-82
2021/11/29 02:29:23;;;;;;;;;11.67;11.67;;;;;;;;4870610;29;45609;-83
2021/11/29 02:31:49;;;;;;;;;8.00;8.00;;;;;;;;4885172;29;45934;-83
2021/11/29 02:34:18;;;;;;;;;11.00;11.00;;;;;;;;4869025;29;45400;-83
2021/11/29 02:36:46;;;;;;;;;12.33;11.00;;;;;;;;4870017;29;45467;-83
2021/11/29 02:39:12;;;;;;;;;14.67;11.33;;;;;;;;4887179;29;45392;-83
2021/11/29 02:41:37;;;;;;;;;8.00;8.00;;;;;;;;4871255;29;45367;-83
2021/11/29 02:44:02;;;;;;;;;12.00;9.67;;;;;;;;4871971;29;46360;-83
2021/11/29 02:46:29;;;;;;;;;11.00;8.00;;;;;;;;4885030;29;45461;-82
2021/11/29 02:48:56;;;;;;;;;11.33;8.67;;;;;;;;4884976;29;44924;-83
2021/11/29 02:51:27;;;;;;;;;8.00;8.00;;;;;;;;4870790;29;44722;-83
2021/11/29 02:53:58;;;;;;;;;11.00;8.00;;;;;;;;4870245;29;45653;-83
2021/11/29 02:56:23;;;;;;;;;12.33;10.33;;;;;;;;4888643;29;45323;-84
2021/11/29 02:58:49;;;;;;;;;6.33;6.33;;;;;;;;4872147;29;45364;-83
2021/11/29 03:01:16;;;;;;;;;7.33;6.67;;;;;;;;4870526;29;45312;-83
2021/11/29 03:03:51;;;;;;;;;10.33;8.33;;;;;;;;4887446;29;45423;-84
2021/11/29 03:06:17;;;;;;;;;12.00;10.33;;;;;;;;4871210;29;45397;-84
2021/11/29 03:08:43;;;;;;;;;7.67;7.67;;;;;;;;4870803;29;45426;-84
2021/11/29 03:11:08;;;;;;;;;9.67;9.67;;;;;;;;4888202;29;45482;-84
2021/11/29 03:13:33;;;;;;;;;8.00;8.00;;;;;;;;4887982;29;45490;-84
2021/11/29 03:15:59;;;;;;;;;9.00;8.67;;;;;;;;4887753;29;45463;-84
2021/11/29 03:18:31;;;;;;;;;11.00;7.67;;;;;;;;4888877;29;45520;-84
2021/11/29 03:20:56;;;;;;;;;7.33;7.33;;;;;;;;4870942;29;45017;-84
2021/11/29 03:23:22;;;;;;;;;7.67;7.67;;;;;;;;4886023;29;47048;-84
2021/11/29 03:25:48;;;;;;;;;8.33;6.33;;;;;;;;4886253;29;45468;-83
2021/11/29 03:28:14;;;;;;;;;9.67;8.00;;;;;;;;4887854;29;45460;-84
2021/11/29 03:30:39;;;;;;;;;11.00;9.00;;;;;;;;4886988;29;45813;-83
2021/11/29 03:33:04;;;;;;;;;9.00;8.33;;;;;;;;4884561;29;47045;-83
2021/11/29 03:35:29;;;;;;;;;12.33;11.67;;;;;;;;4886727;29;45431;-83
2021/11/29 03:37:55;;;;;;;;;11.33;9.00;;;;;;;;4887195;29;44956;-83
2021/11/29 03:40:20;;;;;;;;;9.67;8.00;;;;;;;;4887191;29;45738;-83
2021/11/29 03:42:45;;;;;;;;;7.00;7.00;;;;;;;;4887163;29;46393;-83
2021/11/29 03:45:10;;;;;;;;;12.00;8.00;;;;;;;;4889250;29;46151;-84
2021/11/29 03:47:36;;;;;;;;;11.00;8.00;;;;;;;;4892360;29;45364;-83
2021/11/29 03:50:07;;;;;;;;;10.00;7.00;;;;;;;;4891754;29;45462;-84
2021/11/29 03:52:33;;;;;;;;;8.00;7.33;;;;;;;;4887884;29;47929;-84
2021/11/29 03:54:58;;;;;;;;;7.33;7.33;;;;;;;;4882341;29;45495;-84
2021/11/29 03:57:23;;;;;;;;;7.00;7.00;;;;;;;;4869993;29;45355;-84
2021/11/29 03:59:49;;;;;;;;;7.00;7.00;;;;;;;;4883660;29;45498;-84
2021/11/29 04:02:16;;;;;;;;;9.67;7.00;;;;;;;;4884112;29;46927;-84
2021/11/29 04:04:42;;;;;;;;;8.00;7.00;;;;;;;;4869706;29;45390;-84
2021/11/29 04:07:07;;;;;;;;;12.00;8.00;;;;;;;;4867303;29;44909;-83
2021/11/29 04:09:32;;;;;;;;;6.67;6.67;;;;;;;;4886573;28;45760;-83
2021/11/29 04:11:58;;;;;;;;;7.67;7.67;;;;;;;;4870250;29;45720;-83
2021/11/29 04:14:24;;;;;;;;;4.67;4.67;;;;;;;;4870633;29;45332;-83
2021/11/29 04:16:49;;;;;;;;;5.67;5.67;;;;;;;;4882623;29;45586;-83
2021/11/29 04:19:15;;;;;;;;;5.00;5.00;;;;;;;;4881982;29;45489;-83
2021/11/29 04:21:40;;;;;;;;;10.33;8.00;;;;;;;;4883050;29;48408;-84
2021/11/29 04:24:06;;;;;;;;;8.67;7.67;;;;;;;;4868916;29;45368;-83
2021/11/29 04:26:32;;;;;;;;;8.00;8.00;;;;;;;;4883075;29;45363;-83
2021/11/29 04:28:59;;;;;;;;;8.00;8.00;;;;;;;;4867759;29;45606;-83
2021/11/29 04:31:24;;;;;;;;;5.00;5.00;;;;;;;;4868014;29;47640;-83
2021/11/29 04:33:49;;;;;;;;;4.67;4.67;;;;;;;;4867809;29;45485;-83
2021/11/29 04:36:15;;;;;;;;;7.00;7.00;;;;;;;;4869595;29;45434;-83
2021/11/29 04:38:40;;;;;;;;;8.00;6.33;;;;;;;;4870334;29;45748;-84
2021/11/29 04:41:05;;;;;;;;;12.33;9.00;;;;;;;;4884989;29;46643;-83
2021/11/29 04:43:30;;;;;;;;;8.67;8.67;;;;;;;;4883909;29;44984;-84
2021/11/29 04:45:56;;;;;;;;;9.00;9.00;;;;;;;;4870009;29;45504;-83
2021/11/29 04:48:22;;;;;;;;;6.33;6.33;;;;;;;;4868545;29;45379;-83
2021/11/29 04:50:47;;;;;;;;;6.67;6.67;;;;;;;;4881098;29;47345;-84
2021/11/29 04:53:12;;;;;;;;;9.00;8.00;;;;;;;;4868791;29;45419;-84
2021/11/29 04:55:38;;;;;;;;;9.67;8.33;;;;;;;;4864812;29;45458;-83
2021/11/29 04:58:03;;;;;;;;;10.33;8.00;;;;;;;;4867807;29;45340;-83
2021/11/29 05:00:30;;;;;;;;;6.67;6.67;;;;;;;;4867440;29;47241;-84
2021/11/29 05:02:55;;;;;;;;;8.33;7.33;;;;;;;;4866557;29;45519;-84
2021/11/29 05:05:21;;;;;;;;;8.00;7.33;;;;;;;;4868229;29;45299;-83
2021/11/29 05:07:46;;;;;;;;;11.00;9.00;;;;;;;;4866332;29;45363;-83
2021/11/29 05:10:12;;;;;;;;;9.00;7.00;;;;;;;;4865677;29;47309;-84
2021/11/29 05:12:38;;;;;;;;;9.00;7.00;;;;;;;;4867560;29;45436;-84
2021/11/29 05:15:04;;;;;;;;;7.67;7.67;;;;;;;;4867776;29;45799;-83
2021/11/29 05:17:29;;;;;;;;;9.33;5.67;;;;;;;;4864858;29;46148;-83
2021/11/29 05:19:54;;;;;;;;;6.33;6.33;;;;;;;;4850284;29;47121;-83
2021/11/29 05:22:21;;;;;;;;;10.33;5.67;;;;;;;;4850188;29;45842;-84
2021/11/29 05:24:46;;;;;;;;;8.67;6.67;;;;;;;;4857998;29;45436;-84
2021/11/29 05:27:11;;;;;;;;;7.33;7.33;;;;;;;;4851773;29;45418;-83
2021/11/29 05:29:37;;;;;;;;;9.67;6.33;;;;;;;;4849986;29;47628;-84
2021/11/29 05:32:02;;;;;;;;;8.00;8.00;;;;;;;;4851075;29;45386;-83
2021/11/29 05:34:28;;;;;;;;;5.00;5.00;;;;;;;;4866671;29;45498;-83
2021/11/29 05:39:56;;;;;;;;;8.00;8.00;;;;;;;;4866958;29;45850;-83
2021/11/29 05:42:21;;;;;;;;;11.00;9.00;;;;;;;;4850754;29;45472;-84
2021/11/29 05:44:50;;;;;;;;;1.00;1.00;;;;;;;;4849546;29;45740;-83
2021/11/29 05:47:16;;;;;;;;;4.33;4.33;;;;;;;;4849744;29;45353;-82
2021/11/29 05:49:41;;;;;;;;;5.00;5.00;;;;;;;;4849782;29;47052;-83
2021/11/29 05:52:07;;;;;;;;;8.67;8.00;;;;;;;;4850169;29;46078;-83
2021/11/29 05:54:32;;;;;;;;;9.67;7.33;;;;;;;;4866409;29;45541;-83
2021/11/29 05:56:57;;;;;;;;;8.00;6.00;;;;;;;;4867249;29;45465;-83
2021/11/29 05:59:23;;;;;;;;;9.00;5.00;;;;;;;;4851448;29;47252;-83
2021/11/29 06:04:50;;;;;;;;;11.00;11.00;;;;;;;;4871756;29;45475;-83
2021/11/29 06:07:16;;;;;;;;;8.00;8.00;;;;;;;;4872512;29;45355;-83
2021/11/29 06:09:41;;;;;;;;;6.00;6.00;;;;;;;;4871596;29;45783;-83
2021/11/29 06:12:06;;;;;;;;;8.00;7.33;;;;;;;;4855106;29;45424;-82
2021/11/29 06:14:33;;;;;;;;;8.00;8.00;;;;;;;;4854139;29;45730;-82
2021/11/29 06:16:58;;;;;;;;;11.00;11.00;;;;;;;;4851203;29;45463;-83
2021/11/29 06:19:24;;;;;;;;;9.00;7.67;;;;;;;;4853281;29;48107;-83
2021/11/29 06:21:49;;;;;;;;;11.00;9.00;;;;;;;;4851027;29;45444;-83
2021/11/29 06:24:14;;;;;;;;;11.67;11.67;;;;;;;;4851164;29;46116;-84
2021/11/29 06:26:39;;;;;;;;;9.67;8.00;;;;;;;;4869798;29;45441;-84
2021/11/29 06:29:05;;;;;;;;;9.67;9.67;;;;;;;;4853312;29;46885;-83
2021/11/29 06:31:30;;;;;;;;;8.00;8.00;;;;;;;;4853779;29;45533;-83
2021/11/29 06:33:55;;;;;;;;;9.67;9.67;;;;;;;;4871315;29;45496;-83
2021/11/29 06:36:22;;;;;;;;;6.33;6.33;;;;;;;;4853296;29;44849;-83
2021/11/29 06:41:50;;;;;;;;;9.00;9.00;;;;;;;;4869416;29;45303;-83
2021/11/29 06:44:16;;;;;;;;;7.67;6.33;;;;;;;;4871226;29;45404;-82
2021/11/29 06:46:41;;;;;;;;;11.67;8.33;;;;;;;;4852447;29;44800;-83
2021/11/29 06:49:07;;;;;;;;;12.00;8.00;;;;;;;;4869154;29;45310;-82
2021/11/29 06:51:34;;;;;;;;;8.00;8.00;;;;;;;;4869916;29;45455;-83
2021/11/29 06:53:59;;;;;;;;;10.33;8.00;;;;;;;;4866325;29;45708;-83
2021/11/29 06:56:25;;;;;;;;;9.33;7.33;;;;;;;;4866935;29;45724;-84
2021/11/29 06:58:50;;;;;;;;;9.67;9.67;;;;;;;;4866191;29;48243;-83
2021/11/29 07:01:15;;;;;;;;;8.67;7.33;;;;;;;;4851833;29;45458;-83
2021/11/29 07:03:41;;;;;;;;;8.00;8.00;;;;;;;;4848204;29;45428;-83
2021/11/29 07:06:06;;;;;;;;;8.33;8.33;;;;;;;;4850034;29;44769;-83
2021/11/29 07:08:31;;;;;;;;;11.00;8.00;;;;;;;;4833860;29;48509;-83
2021/11/29 07:10:59;;;;;;;;;10.33;8.67;;;;;;;;4852607;29;45473;-84
2021/11/29 07:13:26;;;;;;;;;8.00;8.00;;;;;;;;4866113;29;45791;-84
2021/11/29 07:15:51;;;;;;;;;7.00;4.67;;;;;;;;4870294;29;45553;-84
2021/11/29 07:18:16;;;;;;;;;5.67;5.33;;;;;;;;4870340;29;46274;-83
2021/11/29 07:20:42;;;;;;;;;8.00;8.00;;;;;;;;4853725;29;45450;-83
2021/11/29 07:23:08;;;;;;;;;4.67;4.67;;;;;;;;4859081;29;44790;-83
2021/11/29 07:25:33;;;;;;;;;4.33;4.33;;;;;;;;4860995;29;45783;-84
2021/11/29 07:27:59;;;;;;;;;6.33;5.67;;;;;;;;4857773;29;46875;-84
2021/11/29 07:30:25;;;;;;;;;8.33;7.33;;;;;;;;4871286;29;45335;-81
2021/11/29 07:32:53;;;;;;;;;9.00;9.00;;;;;;;;4854488;29;45367;-84
2021/11/29 07:35:25;;;;;;;;;7.33;6.33;;;;;;;;4871682;29;45411;-84
2021/11/29 07:37:52;;;;;;;;;6.67;6.67;;;;;;;;4871750;29;45384;-84
2021/11/29 07:40:19;;;;;;;;;4.00;4.00;;;;;;;;4860645;29;45335;-84
2021/11/29 07:42:47;;;;;;;;;9.00;9.00;;;;;;;;4856090;29;45512;-84
2021/11/29 07:45:12;;;;;;;;;8.67;7.33;;;;;;;;4855173;29;45560;-83
2021/11/29 07:47:41;;;;;;;;;9.67;7.67;;;;;;;;4854993;29;47049;-86
2021/11/29 07:50:10;;;;;;;;;10.33;9.00;;;;;;;;4840556;29;45448;-83
2021/11/29 07:52:38;;;;;;;;;10.33;9.67;;;;;;;;4873549;29;45809;-82
2021/11/29 07:55:07;;;;;;;;;8.00;8.00;;;;;;;;4856081;29;45506;-83
2021/11/29 07:57:32;;;;;;;;;13.33;13.33;;;;;;;;4865171;29;47373;-83
2021/11/29 07:59:59;;;;;;;;;11.00;11.00;;;;;;;;4895041;29;45435;-85
2021/11/29 08:02:31;;;;;;;;;14.33;12.00;;;;;;;;4891087;29;45465;-82
2021/11/29 08:04:56;;;;;;;;;13.33;11.00;;;;;;;;4862959;29;45542;-82
2021/11/29 08:07:29;;;;;;;;;14.00;12.33;;;;;;;;4893858;29;45491;-83
2021/11/29 08:09:58;;;;;;;;;13.67;11.33;;;;;;;;4891455;29;45451;-85
2021/11/29 08:12:31;;;;;;;;;8.00;8.00;;;;;;;;4877438;29;45471;-86
2021/11/29 08:14:56;;;;;;;;;10.00;10.00;;;;;;;;4888241;29;45538;-85
2021/11/29 08:17:31;;;;;;;;;12.33;10.33;;;;;;;;4905912;29;46938;-84
2021/11/29 08:19:56;;;;;;;;;12.00;12.00;;;;;;;;4872824;29;45417;-83
2021/11/29 08:22:24;;;;;;;;;13.33;12.00;;;;;;;;4855350;29;45394;-84
2021/11/29 08:27:56;;;;;;;;;11.00;11.00;;;;;;;;4891581;29;45487;-85
2021/11/29 08:30:23;;;;;;;;;10.67;9.33;;;;;;;;4875612;29;44851;-84
2021/11/29 08:32:48;;;;;;;;;13.00;9.00;;;;;;;;4892044;29;44890;-83
2021/11/29 08:35:15;;;;;;;;;10.67;10.67;;;;;;;;4890946;29;45277;-85
2021/11/29 08:37:46;;;;;;;;;17.00;13.00;;;;;;;;4886707;29;45571;-83
2021/11/29 08:40:38;;;;;;;;;21.00;15.67;;;;;;;;4871618;29;45483;-83
2021/11/29 08:43:19;;;;;;;;;3.33;2.00;;;;;;;;4875026;29;45646;-84
2021/11/29 08:45:55;;;;;;;;;15.00;15.00;;;;;;;;4884677;29;45561;-85
2021/11/29 08:51:27;;;;;;;;;15.33;13.00;;;;;;;;4896085;29;45751;-84
2021/11/29 08:54:00;;;;;;;;;14.33;12.00;;;;;;;;4891054;29;45429;-85
2021/11/29 08:56:48;;;;;;;;;13.00;11.00;;;;;;;;4875484;29;45395;-85
2021/11/29 08:59:28;;;;;;;;;12.00;12.00;;;;;;;;4876986;29;45546;-84
2021/11/29 09:01:56;;;;;;;;;17.00;15.33;;;;;;;;4869961;29;44955;-85
2021/11/29 09:04:22;;;;;;;;;16.00;11.00;;;;;;;;4865271;29;45418;-85
2021/11/29 09:06:48;;;;;;;;;9.33;9.00;;;;;;;;4899873;29;45490;-85
2021/11/29 09:09:20;;;;;;;;;8.33;8.33;;;;;;;;4903695;29;47267;-84
2021/11/29 09:11:46;;;;;;;;;8.33;7.33;;;;;;;;4894148;29;45477;-84
2021/11/29 09:14:17;;;;;;;;;11.33;9.00;;;;;;;;4871073;29;45534;-84
2021/11/29 09:16:45;;;;;;;;;2.00;0.33;;;;;;;;4886775;29;45460;-85
2021/11/29 09:22:04;;;;;;;;;14.33;11.67;;;;;;;;4864055;29;45596;-84
2021/11/29 09:24:36;;;;;;;;;13.33;12.00;;;;;;;;4899461;29;45828;-83
2021/11/29 09:30:15;;;;;;;;;14.33;11.00;;;;;;;;4862454;29;49283;-84
2021/11/29 09:32:40;;;;;;;;;11.33;8.33;;;;;;;;4869863;29;45501;-84
2021/11/29 09:35:08;;;;;;;;;9.33;9.33;;;;;;;;4864427;29;44984;-84
2021/11/29 09:37:37;;;;;;;;;9.00;9.00;;;;;;;;4856813;29;45541;-85
2021/11/29 09:40:08;;;;;;;;;9.67;8.00;;;;;;;;4863762;29;47254;-83
2021/11/29 09:42:35;;;;;;;;;7.67;7.67;;;;;;;;4841567;29;45411;-84
2021/11/29 09:45:39;;;;;;;;;;;;;;;;;;;;;
2021/11/29 09:48:13;;;;;;;;;9.00;9.00;;;;;;;;4836000;29;64936;-84
2021/11/29 09:50:47;;;;;;;;;13.67;10.33;;;;;;;;4853238;29;45959;-85
2021/11/29 09:53:17;;;;;;;;;10.00;10.00;;;;;;;;4867378;29;45440;-85
2021/11/29 09:55:42;;;;;;;;;10.00;10.00;;;;;;;;4855765;29;45715;-84
2021/11/29 09:58:11;;;;;;;;;13.33;13.00;;;;;;;;4881982;29;45493;-84
2021/11/29 10:00:44;;;;;;;;;14.33;13.00;;;;;;;;4882764;29;47102;-85
2021/11/29 10:03:10;;;;;;;;;9.33;5.00;;;;;;;;4873928;29;45531;-84
2021/11/29 10:05:36;;;;;;;;;16.00;15.00;;;;;;;;4867643;29;45612;-81
2021/11/29 10:08:28;;;;;;;;;13.00;13.00;;;;;;;;4864685;29;45567;-88
2021/11/29 10:11:24;;;;;;;;;13.00;9.33;;;;;;;;4890831;29;45664;-87
2021/11/29 10:14:01;;;;;;;;;27.67;21.00;;;;;;;;4866644;29;45546;-85
2021/11/29 10:16:31;;;;;;;;;19.00;19.00;;;;;;;;4863880;29;45452;-83
2021/11/29 10:18:57;;;;;;;;;13.00;13.00;;;;;;;;4891898;29;45460;-84
2021/11/29 10:21:22;;;;;;;;;16.33;13.33;;;;;;;;4874017;29;47263;-84
2021/11/29 10:23:49;;;;;;;;;12.00;10.00;;;;;;;;4875824;29;46702;-82
2021/11/29 10:26:26;;;;;;;;;8.67;8.67;;;;;;;;4873444;29;45536;-84
2021/11/29 10:28:59;;;;;;;;;15.00;12.67;;;;;;;;4872108;29;45458;-82
2021/11/29 10:31:24;;;;;;;;;13.00;10.00;;;;;;;;4887966;29;45500;-84
2021/11/29 10:33:52;;;;;;;;;10.67;9.00;;;;;;;;4874551;29;45462;-82
2021/11/29 10:36:18;;;;;;;;;13.00;12.67;;;;;;;;4867586;29;45639;-84
2021/11/29 10:38:47;;;;;;;;;11.33;9.67;;;;;;;;4871195;29;45704;-83
2021/11/29 10:41:14;;;;;;;;;11.67;11.33;;;;;;;;4872331;29;46879;-82
2021/11/29 10:43:41;;;;;;;;;14.67;14.00;;;;;;;;4873131;29;45527;-83
2021/11/29 10:46:21;;;;;;;;;17.00;13.00;;;;;;;;4893571;29;45972;-83
2021/11/29 10:48:48;;;;;;;;;9.67;9.67;;;;;;;;4879044;29;45340;-82
2021/11/29 10:51:16;;;;;;;;;10.00;10.00;;;;;;;;4874484;29;46800;-83
2021/11/29 10:53:47;;;;;;;;;13.00;12.00;;;;;;;;4874596;29;45473;-83
2021/11/29 10:56:12;;;;;;;;;9.33;9.33;;;;;;;;4871832;29;45426;-84
2021/11/29 10:58:41;;;;;;;;;10.00;9.00;;;;;;;;4874564;29;45485;-83
2021/11/29 11:01:07;;;;;;;;;9.33;9.33;;;;;;;;4876582;29;45808;-83
2021/11/29 11:03:48;;;;;;;;;13.67;13.67;;;;;;;;4901829;29;45667;-84
2021/11/29 11:06:14;;;;;;;;;9.00;5.00;;;;;;;;4874305;29;45478;-83
2021/11/29 11:08:39;;;;;;;;;16.00;13.00;;;;;;;;4870221;29;45499;-83
2021/11/29 11:11:24;;;;;;;;;13.00;11.33;;;;;;;;4889638;29;45758;-83
2021/11/29 11:13:58;;;;;;;;;18.00;17.67;;;;;;;;4868722;29;45557;-75
2021/11/29 11:16:38;;;;;;;;;16.00;13.00;;;;;;;;4867129;29;47426;-74
2021/11/29 11:19:03;;;;;;;;;12.33;10.00;;;;;;;;4865526;29;45376;-75
2021/11/29 11:21:32;;;;;;;;;9.67;9.67;;;;;;;;4855473;29;46123;-73
2021/11/29 11:27:01;;;;;;;;;9.00;9.00;;;;;;;;4865688;29;45538;-75
2021/11/29 11:29:41;;;;;;;;;12.33;9.00;;;;;;;;4844580;29;45659;-74
2021/11/29 11:32:17;;;;;;;;;12.00;10.00;;;;;;;;4862914;29;46151;-73
2021/11/29 11:34:44;;;;;;;;;9.67;9.67;;;;;;;;4859223;29;45542;-74
2021/11/29 11:37:12;;;;;;;;;10.00;7.00;;;;;;;;4854920;29;45585;-74
2021/11/29 11:39:38;;;;;;;;;10.67;10.00;;;;;;;;4868085;29;45584;-83
2021/11/29 11:42:46;;;;;;;;;10.00;9.33;;;;;;;;4855697;29;48044;-84
2021/11/29 11:45:15;;;;;;;;;12.33;7.67;;;;;;;;4882148;29;45451;-84
2021/11/29 11:47:40;;;;;;;;;9.33;9.00;;;;;;;;4854308;29;45373;-81
2021/11/29 11:50:08;;;;;;;;;12.00;8.67;;;;;;;;4852771;29;45543;-83
2021/11/29 11:52:42;;;;;;;;;11.67;10.00;;;;;;;;4856759;29;46735;-82
2021/11/29 11:55:10;;;;;;;;;8.00;6.67;;;;;;;;4859186;29;44886;-81
2021/11/29 11:57:36;;;;;;;;;11.50;10.00;;;;;;;;4858884;29;45035;-82
2021/11/29 12:00:05;;;;;;;;;11.00;10.00;;;;;;;;4872205;29;45403;-83
2021/11/29 12:02:42;;;;;;;;;12.33;10.00;;;;;;;;4853441;29;47033;-83
2021/11/29 12:05:19;;;;;;;;;8.67;8.67;;;;;;;;4855616;29;45477;-84
2021/11/29 12:07:49;;;;;;;;;9.67;9.67;;;;;;;;4877914;29;45333;-83
2021/11/29 12:17:09;;;;;;;;;10.00;10.00;;;;;;;;4802779;29;45278;-82
2021/11/29 12:20:19;;;;;;;;;10.00;8.33;;;;;;;;4815396;29;45004;-83
2021/11/29 12:22:48;;;;;;;;;9.00;9.00;;;;;;;;4836279;29;45650;-85
2021/11/29 12:25:16;;;;;;;;;12.33;12.33;;;;;;;;4854122;29;47362;-86
2021/11/29 12:28:21;;;;;;;;;10.33;7.00;;;;;;;;4869168;29;45549;-85
2021/11/29 12:30:49;;;;;;;;;11.00;9.33;;;;;;;;4858186;29;45511;-85
2021/11/29 12:33:15;;;;;;;;;7.67;7.67;;;;;;;;4877145;29;44973;-83
2021/11/29 12:35:42;;;;;;;;;7.67;7.67;;;;;;;;4857099;29;48154;-84
2021/11/29 12:38:10;;;;;;;;;6.67;6.67;;;;;;;;4855326;29;45486;-83
2021/11/29 12:40:54;;;;;;;;;7.67;7.00;;;;;;;;4857033;29;45726;-83
2021/11/29 12:43:31;;;;;;;;;6.33;4.33;;;;;;;;4865959;29;45951;-84
2021/11/29 12:46:15;;;;;;;;;5.00;4.33;;;;;;;;4844934;29;45640;-84
2021/11/29 12:48:40;;;;;;;;;3.67;3.67;;;;;;;;4873941;29;45491;-84
2021/11/29 12:51:06;;;;;;;;;1.33;1.33;;;;;;;;4853599;29;45617;-83
2021/11/29 12:53:38;;;;;;;;;2.33;2.33;;;;;;;;4854310;29;45420;-84
2021/11/29 12:56:10;;;;;;;;;2.00;2.00;;;;;;;;4856286;29;47223;-84
2021/11/29 12:58:36;;;;;;;;;6.00;3.67;;;;;;;;4877302;29;45443;-82
2021/11/29 13:01:05;;;;;;;;;5.00;5.00;;;;;;;;4873688;29;45188;-81
2021/11/29 13:03:31;;;;;;;;;2.67;1.67;;;;;;;;4885477;29;45777;-81
2021/11/29 13:05:57;;;;;;;;;3.00;3.00;;;;;;;;4888769;29;45477;-84
2021/11/29 13:08:44;;;;;;;;;2.00;2.00;;;;;;;;4888465;29;45505;-80
2021/11/29 13:11:09;;;;;;;;;2.33;2.33;;;;;;;;4872367;29;45585;-82
2021/11/29 13:16:43;;;;;;;;;6.33;2.00;;;;;;;;4893271;29;45693;-82
2021/11/29 13:19:15;;;;;;;;;2.67;2.67;;;;;;;;4889755;29;45501;-82
2021/11/29 13:21:55;;;;;;;;;1.33;1.33;;;;;;;;4871616;29;45552;-82
2021/11/29 13:24:36;;;;;;;;;3.00;2.67;;;;;;;;4872444;29;44877;-83
2021/11/29 13:27:04;;;;;;;;;6.00;2.33;;;;;;;;4873536;29;45593;-82
2021/11/29 13:29:31;;;;;;;;;1.00;1.00;;;;;;;;4888148;29;46035;-82
2021/11/29 13:31:58;;;;;;;;;1.33;1.33;;;;;;;;4874770;29;45545;-84
2021/11/29 13:34:24;;;;;;;;;2.00;2.00;;;;;;;;4889727;29;45293;-81
2021/11/29 13:36:50;;;;;;;;;2.67;2.67;;;;;;;;4888665;29;44995;-81
2021/11/29 13:39:17;;;;;;;;;2.00;2.00;;;;;;;;4888616;29;45338;-83
2021/11/29 13:41:45;;;;;;;;;3.00;2.00;;;;;;;;4911089;29;45578;-83
2021/11/29 13:44:24;;;;;;;;;1.67;1.67;;;;;;;;4888619;29;45929;-82
2021/11/29 13:47:07;;;;;;;;;3.67;3.67;;;;;;;;4889231;29;46303;-82
2021/11/29 13:49:33;;;;;;;;;4.00;3.00;;;;;;;;4888372;29;45517;-82
2021/11/29 13:52:05;;;;;;;;;3.00;2.00;;;;;;;;4865156;29;45480;-81
2021/11/29 13:54:34;;;;;;;;;10.00;6.00;;;;;;;;4870608;29;45485;-82
2021/11/29 13:57:06;;;;;;;;;3.00;3.00;;;;;;;;4867604;29;46778;-81
2021/11/29 13:59:32;;;;;;;;;3.00;2.00;;;;;;;;4864577;29;44857;-82
2021/11/29 14:02:11;;;;;;;;;2.67;2.67;;;;;;;;4871466;29;45804;-82
2021/11/29 14:04:37;;;;;;;;;2.00;2.00;;;;;;;;4872677;29;45388;-82
2021/11/29 14:07:09;;;;;;;;;8.33;5.00;;;;;;;;4867140;29;46931;-80
2021/11/29 14:09:39;;;;;;;;;2.00;2.00;;;;;;;;4885052;29;45205;-81
2021/11/29 14:12:05;;;;;;;;;2.00;2.00;;;;;;;;4851973;29;45895;-82
2021/11/29 14:14:30;;;;;;;;;1.00;1.00;;;;;;;;4852183;29;45408;-82
2021/11/29 14:16:56;;;;;;;;;3.67;2.00;;;;;;;;4869088;29;46484;-83
2021/11/29 14:19:24;;;;;;;;;3.00;1.33;;;;;;;;4864289;29;45554;-83
2021/11/29 14:21:59;;;;;;;;;4.33;3.00;;;;;;;;4859502;29;44944;-82
2021/11/29 14:24:25;;;;;;;;;9.33;5.00;;;;;;;;4865310;29;45372;-82
2021/11/29 14:26:53;;;;;;;;;5.00;5.00;;;;;;;;4873643;29;46852;-83
2021/11/29 14:29:21;;;;;;;;;3.00;2.00;;;;;;;;4876529;29;45454;-82
2021/11/29 14:31:48;;;;;;;;;1.00;1.00;;;;;;;;4868468;29;45542;-81
2021/11/29 14:34:19;;;;;;;;;3.00;2.33;;;;;;;;4857627;29;45531;-82
2021/11/29 14:36:48;;;;;;;;;2.00;2.00;;;;;;;;4893749;29;48219;-83
2021/11/29 14:39:25;;;;;;;;;2.00;2.00;;;;;;;;4871692;29;45409;-82
2021/11/29 14:41:59;;;;;;;;;5.00;3.00;;;;;;;;4887144;29;45493;-83
2021/11/29 14:44:25;;;;;;;;;2.67;2.00;;;;;;;;4871412;29;45563;-82
2021/11/29 14:46:53;;;;;;;;;5.00;2.33;;;;;;;;4868673;29;47098;-83
2021/11/29 14:49:20;;;;;;;;;2.00;2.00;;;;;;;;4871159;29;45922;-81
2021/11/29 14:51:46;;;;;;;;;2.00;2.00;;;;;;;;4873556;29;44829;-83
2021/11/29 14:54:13;;;;;;;;;6.00;2.67;;;;;;;;4904454;29;45429;-81
2021/11/29 14:56:39;;;;;;;;;2.33;2.00;;;;;;;;4871116;29;46893;-81
2021/11/29 15:02:08;;;;;;;;;49.67;41.67;;;;;;;;4873440;29;45475;-81
2021/11/29 15:04:37;;;;;;;;;23.33;19.00;;;;;;;;4857629;29;45398;-82
2021/11/29 15:07:12;;;;;;;;;6.00;2.67;;;;;;;;4874420;29;45295;-82
2021/11/29 15:09:38;;;;;;;;;2.00;2.00;;;;;;;;4870394;29;45260;-83
2021/11/29 15:12:25;;;;;;;;;1.00;1.00;;;;;;;;4859399;29;45559;-83
2021/11/29 15:14:51;;;;;;;;;1.00;1.00;;;;;;;;4874611;29;45432;-81
2021/11/29 15:17:21;;;;;;;;;0.00;0.00;;;;;;;;4843540;29;47275;-82
2021/11/29 15:19:48;;;;;;;;;2.00;2.00;;;;;;;;4858908;29;45889;-82
2021/11/29 15:22:17;;;;;;;;;3.00;3.00;;;;;;;;4858398;29;45505;-82
2021/11/29 15:27:46;;;;;;;;;3.67;2.00;;;;;;;;4872688;29;45500;-82
2021/11/29 15:30:13;;;;;;;;;2.67;2.67;;;;;;;;4852137;29;45583;-83